Time;durP1;ratioP1;P1;durP2;ratioP2;P2;SDS_P1;SDS_P2;PMS_P1;PMS_P2;Temp;Humidity;BMP_temperature;BMP_pressure;BME280_temperature;BME280_humidity;BME280_pressure;Samples;Min_cycle;Max_cycle;Signal;HPM_P1;HPM_P2
2023/05/01 00:27:34;;;;;;;;;;;;;;;;;;4962314;28;20025;-87
2023/05/01 00:30:00;;;;;;;;;;;;;;;;;;4970088;28;20359;-87
2023/05/01 00:32:28;;;;;;;;;;;;;;;;;;4977992;28;19922;-85
2023/05/01 01:06:18;;;;;;;;;;;;;;;;;;5404865;23;19926;-88
2023/05/01 01:21:42;;;;;;;;;;;;;;;;;;5590986;23;19933;-93
2023/05/01 01:24:09;;;;;;;;;;;;;;;;;;4953703;29;20013;-92
2023/05/01 01:42:10;;;;;;;;;;;;;;;;;;5521246;23;19926;-94
2023/05/01 01:44:36;;;;;;;;;;;;;;;;;;4953112;29;19965;-93
2023/05/01 01:47:02;;;;;;;;;;;;;;;;;;4955588;29;19922;-93
2023/05/01 01:49:27;;;;;;;;;;;;;;;;;;4956936;29;19926;-93
2023/05/01 01:51:54;;;;;;;;;;;;;;;;;;4956722;29;19926;-95
2023/05/01 01:54:20;;;;;;;;;;;;;;;;;;4958100;29;19922;-94
2023/05/01 01:56:46;;;;;;;;;;;;;;;;;;5008955;23;19926;-94
2023/05/01 02:25:10;;;;;;;;;;;;;;;;;;5042350;23;19934;-85
2023/05/01 02:27:36;;;;;;;;;;;;;;;;;;4948027;28;19922;-85
2023/05/01 02:30:04;;;;;;;;;;;;;;;;;;4948335;29;19970;-85
2023/05/01 02:32:30;;;;;;;;;;;;;;;;;;4955213;29;19922;-86
2023/05/01 02:34:56;;;;;;;;;;;;;;;;;;4948772;29;20273;-86
2023/05/01 02:37:22;;;;;;;;;;;;;;;;;;4949954;29;19929;-86
2023/05/01 02:44:58;;;;;;;;;;;;;;;;;;4909989;28;1750250;-92
2023/05/01 02:47:23;;;;;;;;;;;;;;;;;;4957027;29;19923;-93
2023/05/01 03:00:13;;;;;;;;;;;;;;;;;;5997914;23;20308;-92
2023/05/01 03:02:39;;;;;;;;;;;;;;;;;;4956208;29;19926;-91
2023/05/01 03:05:05;;;;;;;;;;;;;;;;;;4955946;29;19922;-93
2023/05/01 03:12:43;;;;;;;;;;;;;;;;;;5703525;23;19948;-85
2023/05/01 03:15:09;;;;;;;;;;;;;;;;;;4948898;29;20009;-85
2023/05/01 03:17:35;;;;;;;;;;;;;;;;;;4948738;29;19923;-86
2023/05/01 03:20:01;;;;;;;;;;;;;;;;;;4953303;29;19984;-84
2023/05/01 03:22:31;;;;;;;;;;;;;;;;;;4955633;28;19922;-84
2023/05/01 03:25:12;;;;;;;;;;;;;;;;;;4968875;29;19922;-84
2023/05/01 03:27:38;;;;;;;;;;;;;;;;;;4949065;29;19930;-86
2023/05/01 03:30:04;;;;;;;;;;;;;;;;;;4951541;29;19923;-86
2023/05/01 03:35:46;;;;;;;;;;;;;;;;;;4979723;29;19974;-83
2023/05/01 03:38:28;;;;;;;;;;;;;;;;;;4970917;28;20001;-86
2023/05/01 03:40:54;;;;;;;;;;;;;;;;;;4968093;29;19923;-84
2023/05/01 03:43:20;;;;;;;;;;;;;;;;;;4948388;29;19985;-86
2023/05/01 03:45:46;;;;;;;;;;;;;;;;;;4948270;29;20298;-84
2023/05/01 03:48:13;;;;;;;;;;;;;;;;;;4949695;29;19926;-87
2023/05/01 03:50:38;;;;;;;;;;;;;;;;;;4966065;29;19930;-84
2023/05/01 03:53:04;;;;;;;;;;;;;;;;;;4949393;29;19922;-85
2023/05/01 03:55:30;;;;;;;;;;;;;;;;;;4949513;29;19934;-85
2023/05/01 03:57:56;;;;;;;;;;;;;;;;;;4951874;29;19930;-86
2023/05/01 04:00:27;;;;;;;;;;;;;;;;;;4978553;29;19946;-85
2023/05/01 04:03:11;;;;;;;;;;;;;;;;;;4963957;29;19989;-87
2023/05/01 04:05:37;;;;;;;;;;;;;;;;;;4959185;29;19922;-86
2023/05/01 04:08:03;;;;;;;;;;;;;;;;;;4938775;29;19949;-86
2023/05/01 04:10:30;;;;;;;;;;;;;;;;;;4945865;29;19926;-86
2023/05/01 04:12:56;;;;;;;;;;;;;;;;;;4964641;29;19929;-87
2023/05/01 04:15:22;;;;;;;;;;;;;;;;;;4947734;29;19923;-86
2023/05/01 04:17:48;;;;;;;;;;;;;;;;;;4941961;29;19945;-85
2023/05/01 04:20:15;;;;;;;;;;;;;;;;;;4947065;29;19929;-86
2023/05/01 04:22:41;;;;;;;;;;;;;;;;;;4950326;29;19933;-86
2023/05/01 04:25:07;;;;;;;;;;;;;;;;;;4942863;29;19922;-84
2023/05/01 04:27:33;;;;;;;;;;;;;;;;;;4959845;28;20001;-86
2023/05/01 04:29:59;;;;;;;;;;;;;;;;;;4960068;29;20009;-86
2023/05/01 04:32:25;;;;;;;;;;;;;;;;;;4950533;29;19923;-85
2023/05/01 04:40:36;;;;;;;;;;;;;;;;;;5688218;23;20021;-87
2023/05/01 04:43:02;;;;;;;;;;;;;;;;;;4941635;29;19927;-86
2023/05/01 04:45:28;;;;;;;;;;;;;;;;;;4938865;29;20311;-85
2023/05/01 04:47:54;;;;;;;;;;;;;;;;;;4944142;29;19933;-85
2023/05/01 04:50:20;;;;;;;;;;;;;;;;;;4955992;29;19973;-85
2023/05/01 04:52:46;;;;;;;;;;;;;;;;;;4946667;29;19929;-86
2023/05/01 04:55:12;;;;;;;;;;;;;;;;;;4960812;28;19923;-85
2023/05/01 04:57:38;;;;;;;;;;;;;;;;;;4942474;29;19926;-85
2023/05/01 05:00:04;;;;;;;;;;;;;;;;;;4946109;29;19927;-86
2023/05/01 05:02:30;;;;;;;;;;;;;;;;;;4931656;29;19939;-83
2023/05/01 05:04:56;;;;;;;;;;;;;;;;;;4965120;29;19922;-85
2023/05/01 05:07:22;;;;;;;;;;;;;;;;;;4946398;29;20002;-86
2023/05/01 05:09:49;;;;;;;;;;;;;;;;;;4942664;29;19970;-83
2023/05/01 05:12:15;;;;;;;;;;;;;;;;;;4936471;29;20004;-85
2023/05/01 05:14:41;;;;;;;;;;;;;;;;;;4939271;29;20373;-83
2023/05/01 05:17:07;;;;;;;;;;;;;;;;;;4938221;29;19922;-86
2023/05/01 05:19:33;;;;;;;;;;;;;;;;;;4949732;29;19929;-86
2023/05/01 05:21:59;;;;;;;;;;;;;;;;;;4941117;29;19923;-87
2023/05/01 05:24:25;;;;;;;;;;;;;;;;;;4945544;29;20017;-87
2023/05/01 05:26:51;;;;;;;;;;;;;;;;;;4943938;29;19931;-86
2023/05/01 05:29:16;;;;;;;;;;;;;;;;;;4948485;29;19923;-86
2023/05/01 05:31:42;;;;;;;;;;;;;;;;;;4940868;29;19926;-86
2023/05/01 05:34:08;;;;;;;;;;;;;;;;;;4960640;28;19923;-85
2023/05/01 05:36:53;;;;;;;;;;;;;;;;;;4941908;29;20008;-87
2023/05/01 05:39:22;;;;;;;;;;;;;;;;;;4962134;28;19933;-87
2023/05/01 05:41:48;;;;;;;;;;;;;;;;;;4942145;29;19927;-87
2023/05/01 05:44:14;;;;;;;;;;;;;;;;;;4941607;29;20311;-86
2023/05/01 05:46:40;;;;;;;;;;;;;;;;;;4944804;29;19923;-88
2023/05/01 05:49:06;;;;;;;;;;;;;;;;;;4944468;29;19923;-86
2023/05/01 05:51:32;;;;;;;;;;;;;;;;;;4948600;29;19934;-85
2023/05/01 05:53:59;;;;;;;;;;;;;;;;;;4938187;29;19929;-85
2023/05/01 05:56:25;;;;;;;;;;;;;;;;;;4944489;29;19923;-85
2023/05/01 05:59:03;;;;;;;;;;;;;;;;;;4961016;29;20050;-85
2023/05/01 06:01:30;;;;;;;;;;;;;;;;;;4945026;29;19937;-85
2023/05/01 06:03:56;;;;;;;;;;;;;;;;;;4946770;29;19977;-86
2023/05/01 06:06:26;;;;;;;;;;;;;;;;;;4953212;28;19922;-85
2023/05/01 06:08:54;;;;;;;;;;;;;;;;;;4960143;29;19926;-86
2023/05/01 06:11:21;;;;;;;;;;;;;;;;;;4957290;29;19929;-87
2023/05/01 06:13:47;;;;;;;;;;;;;;;;;;4946482;29;19930;-86
2023/05/01 06:16:13;;;;;;;;;;;;;;;;;;4943901;29;20348;-84
2023/05/01 06:21:25;;;;;;;;;;;;;;;;;;4964944;29;20335;-87
2023/05/01 06:23:51;;;;;;;;;;;;;;;;;;4937157;29;19929;-86
2023/05/01 06:26:18;;;;;;;;;;;;;;;;;;4962597;29;19926;-86
2023/05/01 06:28:44;;;;;;;;;;;;;;;;;;4945616;29;20025;-88
2023/05/01 06:31:10;;;;;;;;;;;;;;;;;;4946513;29;19974;-85
2023/05/01 06:33:36;;;;;;;;;;;;;;;;;;4945636;29;19923;-87
2023/05/01 06:36:02;;;;;;;;;;;;;;;;;;4944917;28;19923;-87
2023/05/01 06:38:27;;;;;;;;;;;;;;;;;;4960054;28;19938;-86
2023/05/01 06:40:53;;;;;;;;;;;;;;;;;;4964472;28;19998;-87
2023/05/01 06:43:19;;;;;;;;;;;;;;;;;;4942785;28;19947;-86
2023/05/01 06:45:48;;;;;;;;;;;;;;;;;;4951447;28;19906;-87
2023/05/01 06:48:21;;;;;;;;;;;;;;;;;;4996584;28;19946;-86
2023/05/01 06:50:50;;;;;;;;;;;;;;;;;;4989218;28;19966;-86
2023/05/01 06:54:00;;;;;;;;;;;;;;;;;;4962920;29;19911;-85
2023/05/01 06:56:49;;;;;;;;;;;;;;;;;;4966240;28;19923;-86
2023/05/01 06:59:15;;;;;;;;;;;;;;;;;;4960359;28;19922;-87
2023/05/01 07:01:41;;;;;;;;;;;;;;;;;;4944437;29;19922;-90
2023/05/01 07:04:07;;;;;;;;;;;;;;;;;;4951830;29;19922;-87
2023/05/01 07:06:33;;;;;;;;;;;;;;;;;;4944780;29;19973;-87
2023/05/01 07:08:59;;;;;;;;;;;;;;;;;;4940827;29;19922;-86
2023/05/01 07:11:25;;;;;;;;;;;;;;;;;;4948036;29;20392;-87
2023/05/01 07:13:51;;;;;;;;;;;;;;;;;;4961792;28;19922;-86
2023/05/01 07:16:17;;;;;;;;;;;;;;;;;;4950732;28;19929;-87
2023/05/01 07:18:43;;;;;;;;;;;;;;;;;;4961315;28;19922;-87
2023/05/01 07:21:10;;;;;;;;;;;;;;;;;;4940607;29;19922;-88
2023/05/01 07:23:36;;;;;;;;;;;;;;;;;;4951467;28;19961;-85
2023/05/01 07:26:04;;;;;;;;;;;;;;;;;;4952547;28;19930;-86
2023/05/01 07:28:30;;;;;;;;;;;;;;;;;;4940192;29;19930;-86
2023/05/01 07:30:56;;;;;;;;;;;;;;;;;;4965552;29;19930;-90
2023/05/01 07:33:22;;;;;;;;;;;;;;;;;;4942907;29;20336;-87
2023/05/01 07:35:48;;;;;;;;;;;;;;;;;;4941268;29;19923;-87
2023/05/01 07:38:14;;;;;;;;;;;;;;;;;;4941142;29;19926;-86
2023/05/01 07:40:40;;;;;;;;;;;;;;;;;;4953387;29;19922;-87
2023/05/01 07:43:06;;;;;;;;;;;;;;;;;;4951890;28;19958;-86
2023/05/01 07:45:32;;;;;;;;;;;;;;;;;;4941618;29;19922;-88
2023/05/01 07:47:58;;;;;;;;;;;;;;;;;;4960113;29;19933;-88
2023/05/01 07:50:25;;;;;;;;;;;;;;;;;;4954466;29;19926;-87
2023/05/01 07:52:51;;;;;;;;;;;;;;;;;;4948020;29;19926;-84
2023/05/01 07:55:18;;;;;;;;;;;;;;;;;;4943569;29;19922;-87
2023/05/01 07:57:44;;;;;;;;;;;;;;;;;;4951155;29;19969;-88
2023/05/01 08:00:17;;;;;;;;;;;;;;;;;;4950357;29;19923;-86
2023/05/01 08:02:43;;;;;;;;;;;;;;;;;;4950327;29;19961;-87
2023/05/01 08:05:09;;;;;;;;;;;;;;;;;;4944148;29;19923;-86
2023/05/01 08:07:35;;;;;;;;;;;;;;;;;;4951558;29;19933;-86
2023/05/01 08:10:04;;;;;;;;;;;;;;;;;;4944624;29;20300;-86
2023/05/01 08:12:30;;;;;;;;;;;;;;;;;;4951842;29;19977;-85
2023/05/01 08:14:56;;;;;;;;;;;;;;;;;;4952471;29;19927;-88
2023/05/01 08:17:22;;;;;;;;;;;;;;;;;;4953371;29;19930;-88
2023/05/01 08:19:49;;;;;;;;;;;;;;;;;;4949648;29;19922;-89
2023/05/01 08:22:15;;;;;;;;;;;;;;;;;;4954098;29;19933;-87
2023/05/01 08:24:41;;;;;;;;;;;;;;;;;;4952144;29;19907;-88
2023/05/01 08:27:08;;;;;;;;;;;;;;;;;;4959678;29;19923;-88
2023/05/01 08:29:34;;;;;;;;;;;;;;;;;;4960307;28;19929;-89
2023/05/01 08:32:00;;;;;;;;;;;;;;;;;;4954851;28;19930;-88
2023/05/01 08:34:26;;;;;;;;;;;;;;;;;;4970114;28;20391;-90
2023/05/01 08:36:52;;;;;;;;;;;;;;;;;;4952876;29;19923;-86
2023/05/01 08:39:18;;;;;;;;;;;;;;;;;;4955934;29;19923;-88
2023/05/01 08:41:48;;;;;;;;;;;;;;;;;;4949528;29;19923;-88
2023/05/01 08:44:17;;;;;;;;;;;;;;;;;;4952803;29;20426;-87
2023/05/01 08:46:43;;;;;;;;;;;;;;;;;;4952348;29;19922;-89
2023/05/01 08:49:10;;;;;;;;;;;;;;;;;;4952230;29;19946;-89
2023/05/01 08:51:36;;;;;;;;;;;;;;;;;;4940898;29;19927;-90
2023/05/01 08:54:02;;;;;;;;;;;;;;;;;;4941092;29;19937;-89
2023/05/01 08:56:28;;;;;;;;;;;;;;;;;;4943759;29;20399;-89
2023/05/01 08:58:56;;;;;;;;;;;;;;;;;;4959529;29;19923;-89
2023/05/01 09:06:48;;;;;;;;;;;;;;;;;;5729241;23;19930;-90
2023/05/01 09:12:09;;;;;;;;;;;;;;;;;;4983437;28;19926;-89
2023/05/01 09:19:45;;;;;;;;;;;;;;;;;;4971769;28;20020;-89
2023/05/01 09:22:12;;;;;;;;;;;;;;;;;;4984686;28;19906;-88
2023/05/01 09:24:53;;;;;;;;;;;;;;;;;;4983946;28;19927;-89
2023/05/01 09:27:41;;;;;;;;;;;;;;;;;;4979113;28;19910;-89
2023/05/01 09:30:08;;;;;;;;;;;;;;;;;;4959536;29;20343;-89
2023/05/01 09:45:33;;;;;;;;;;;;;;;;;;4985459;26;19926;-90
2023/05/01 09:47:59;;;;;;;;;;;;;;;;;;4982316;28;19965;-86
2023/05/01 09:50:27;;;;;;;;;;;;;;;;;;4978585;28;19926;-87
2023/05/01 09:52:53;;;;;;;;;;;;;;;;;;4970436;28;19933;-88
2023/05/01 09:55:22;;;;;;;;;;;;;;;;;;4980027;28;20013;-86
2023/05/01 09:57:51;;;;;;;;;;;;;;;;;;4965877;28;19922;-89
2023/05/01 10:00:28;;;;;;;;;;;;;;;;;;5287181;23;19935;-86
2023/05/01 10:02:54;;;;;;;;;;;;;;;;;;4950789;28;19910;-87
2023/05/01 10:05:21;;;;;;;;;;;;;;;;;;4953152;29;19923;-86
2023/05/01 10:07:47;;;;;;;;;;;;;;;;;;4952350;29;19930;-87
2023/05/01 10:10:13;;;;;;;;;;;;;;;;;;4967164;29;19927;-88
2023/05/01 10:12:39;;;;;;;;;;;;;;;;;;4950818;29;19981;-88
2023/05/01 10:15:05;;;;;;;;;;;;;;;;;;4946527;29;19922;-89
2023/05/01 10:17:35;;;;;;;;;;;;;;;;;;4975502;28;19982;-89
2023/05/01 10:28:01;;;;;;;;;;;;;;;;;;4974765;28;19942;-89
2023/05/01 10:30:27;;;;;;;;;;;;;;;;;;4956105;29;19918;-88
2023/05/01 10:32:54;;;;;;;;;;;;;;;;;;4946805;29;19941;-88
2023/05/01 10:35:41;;;;;;;;;;;;;;;;;;5543635;23;19951;-88
2023/05/01 10:38:08;;;;;;;;;;;;;;;;;;4958413;29;19927;-88
2023/05/01 10:40:34;;;;;;;;;;;;;;;;;;4944624;29;19997;-88
2023/05/01 10:43:00;;;;;;;;;;;;;;;;;;4936401;29;19930;-88
2023/05/01 10:45:29;;;;;;;;;;;;;;;;;;4936739;29;20509;-89
2023/05/01 10:47:55;;;;;;;;;;;;;;;;;;4940086;29;19923;-89
2023/05/01 10:50:22;;;;;;;;;;;;;;;;;;4956864;29;19937;-88
2023/05/01 10:52:48;;;;;;;;;;;;;;;;;;4940197;29;19923;-89
2023/05/01 10:55:13;;;;;;;;;;;;;;;;;;4990570;23;19964;-89
2023/05/01 10:57:39;;;;;;;;;;;;;;;;;;4978643;28;19960;-87
2023/05/01 11:00:05;;;;;;;;;;;;;;;;;;4967921;28;19972;-89
2023/05/01 11:02:31;;;;;;;;;;;;;;;;;;4965535;28;19949;-89
2023/05/01 11:04:57;;;;;;;;;;;;;;;;;;4998964;28;19922;-89
2023/05/01 11:07:27;;;;;;;;;;;;;;;;;;4986386;28;19910;-92
2023/05/01 12:12:10;;;;;;;;;;;;;;;;;;4970837;28;19941;-86
2023/05/01 12:17:15;;;;;;;;;;;;;;;;;;4975915;23;19930;-89
2023/05/01 12:19:42;;;;;;;;;;;;;;;;;;5060192;23;19937;-87
2023/05/01 12:22:08;;;;;;;;;;;;;;;;;;4952451;28;19926;-87
2023/05/01 12:24:34;;;;;;;;;;;;;;;;;;4955355;29;19913;-88
2023/05/01 12:29:59;;;;;;;;;;;;;;;;;;4968670;28;19958;-89
2023/05/01 12:32:25;;;;;;;;;;;;;;;;;;4969373;28;19923;-89
2023/05/01 12:34:51;;;;;;;;;;;;;;;;;;4955067;28;19933;-87
2023/05/01 12:37:17;;;;;;;;;;;;;;;;;;4961117;28;19930;-89
2023/05/01 12:39:43;;;;;;;;;;;;;;;;;;4964245;28;19958;-89
2023/05/01 12:42:09;;;;;;;;;;;;;;;;;;4950150;28;19929;-87
2023/05/01 12:44:35;;;;;;;;;;;;;;;;;;4954498;29;20025;-89
2023/05/01 12:47:02;;;;;;;;;;;;;;;;;;4960168;29;19933;-89
2023/05/01 12:49:28;;;;;;;;;;;;;;;;;;4955897;29;20376;-86
2023/05/01 12:51:54;;;;;;;;;;;;;;;;;;5421088;23;19950;-86
2023/05/01 12:54:20;;;;;;;;;;;;;;;;;;4964289;28;19926;-87
2023/05/01 12:56:46;;;;;;;;;;;;;;;;;;4973438;28;19926;-88
2023/05/01 12:59:12;;;;;;;;;;;;;;;;;;4972724;28;19945;-89
2023/05/01 13:14:39;;;;;;;;;;;;;;;;;;4964890;28;19935;-88
2023/05/01 13:17:05;;;;;;;;;;;;;;;;;;4947843;29;19954;-89
2023/05/01 13:19:31;;;;;;;;;;;;;;;;;;4951281;29;19910;-88
2023/05/01 13:21:57;;;;;;;;;;;;;;;;;;4956576;28;19922;-90
2023/05/01 13:24:23;;;;;;;;;;;;;;;;;;4959792;28;19927;-91
2023/05/01 13:26:49;;;;;;;;;;;;;;;;;;4947614;29;19934;-85
2023/05/01 13:29:25;;;;;;;;;;;;;;;;;;4959642;29;19911;-87
2023/05/01 13:31:51;;;;;;;;;;;;;;;;;;4966686;28;19951;-87
2023/05/01 13:36:53;;;;;;;;;;;;;;;;;;5154612;23;20564;-87
2023/05/01 13:39:19;;;;;;;;;;;;;;;;;;4946309;29;19947;-86
2023/05/01 13:41:45;;;;;;;;;;;;;;;;;;4939693;29;20010;-86
2023/05/01 14:51:38;;;;;;;;;;;;;;;;;;5247267;23;19970;-93
2023/05/01 14:56:40;;;;;;;;;;;;;;;;;;5402808;23;19930;-90
2023/05/01 15:01:42;;;;;;;;;;;;;;;;;;5232958;23;19926;-91
2023/05/01 15:06:44;;;;;;;;;;;;;;;;;;5216500;23;19966;-91
2023/05/01 15:09:11;;;;;;;;;;;;;;;;;;4966371;28;19950;-90
2023/05/01 15:11:38;;;;;;;;;;;;;;;;;;4962674;28;19922;-92
2023/05/01 15:14:04;;;;;;;;;;;;;;;;;;4962240;28;19992;-90
2023/05/01 15:16:31;;;;;;;;;;;;;;;;;;4963270;28;20307;-91
2023/05/01 15:18:57;;;;;;;;;;;;;;;;;;4976505;28;19922;-91
2023/05/01 15:21:23;;;;;;;;;;;;;;;;;;4962851;28;19930;-90
2023/05/01 15:23:49;;;;;;;;;;;;;;;;;;4978093;28;19927;-93
2023/05/01 15:34:18;;;;;;;;;;;;;;;;;;5793549;23;19935;-91
2023/05/01 15:36:46;;;;;;;;;;;;;;;;;;4940289;29;19930;-91
2023/05/01 15:39:12;;;;;;;;;;;;;;;;;;4939398;29;19923;-91
2023/05/01 15:41:38;;;;;;;;;;;;;;;;;;4938952;29;19933;-92
2023/05/01 15:44:09;;;;;;;;;;;;;;;;;;4957217;29;19922;-91
2023/05/01 15:46:35;;;;;;;;;;;;;;;;;;4941475;29;19922;-91
2023/05/01 15:49:01;;;;;;;;;;;;;;;;;;5196497;23;20241;-93
2023/05/01 15:51:27;;;;;;;;;;;;;;;;;;4983463;28;19926;-91
2023/05/01 15:53:53;;;;;;;;;;;;;;;;;;4979389;28;20209;-91
2023/05/01 15:56:20;;;;;;;;;;;;;;;;;;4966678;28;19918;-92
2023/05/01 15:58:46;;;;;;;;;;;;;;;;;;4962120;28;19926;-93
2023/05/01 16:01:12;;;;;;;;;;;;;;;;;;4978859;28;19930;-88
2023/05/01 16:03:38;;;;;;;;;;;;;;;;;;4979240;28;19973;-90
2023/05/01 16:06:06;;;;;;;;;;;;;;;;;;4978388;28;19922;-92
2023/05/01 16:08:32;;;;;;;;;;;;;;;;;;4981648;28;19953;-93
2023/05/01 16:10:58;;;;;;;;;;;;;;;;;;4965252;28;19928;-92
2023/05/01 16:13:25;;;;;;;;;;;;;;;;;;4984643;28;20400;-91
2023/05/01 16:15:51;;;;;;;;;;;;;;;;;;4963574;28;19977;-92
2023/05/01 16:18:16;;;;;;;;;;;;;;;;;;4963289;28;19950;-91
2023/05/01 16:20:42;;;;;;;;;;;;;;;;;;4964255;28;19962;-92
2023/05/01 16:23:11;;;;;;;;;;;;;;;;;;4965035;28;19990;-89
2023/05/01 16:25:36;;;;;;;;;;;;;;;;;;4967160;28;19922;-92
2023/05/01 16:28:02;;;;;;;;;;;;;;;;;;4968693;28;19978;-95
2023/05/01 16:30:28;;;;;;;;;;;;;;;;;;4964880;28;19986;-93
2023/05/01 16:32:54;;;;;;;;;;;;;;;;;;4970439;28;19937;-94
2023/05/01 16:35:20;;;;;;;;;;;;;;;;;;4970477;28;19934;-93
2023/05/01 16:37:46;;;;;;;;;;;;;;;;;;4969493;28;20009;-91
2023/05/01 16:40:12;;;;;;;;;;;;;;;;;;4967003;28;19922;-91
2023/05/01 16:42:38;;;;;;;;;;;;;;;;;;4965237;28;19922;-94
2023/05/01 16:45:04;;;;;;;;;;;;;;;;;;4964308;28;19922;-93
2023/05/01 16:50:06;;;;;;;;;;;;;;;;;;5042436;23;19931;-91
2023/05/01 16:52:31;;;;;;;;;;;;;;;;;;4948986;29;19922;-92
2023/05/01 16:54:58;;;;;;;;;;;;;;;;;;4954429;29;20431;-93
2023/05/01 16:57:24;;;;;;;;;;;;;;;;;;4947012;29;19929;-92
2023/05/01 16:59:50;;;;;;;;;;;;;;;;;;4955643;29;20304;-91
2023/05/01 17:17:49;;;;;;;;;;;;;;;;;;4966261;28;19926;-87
2023/05/01 17:20:15;;;;;;;;;;;;;;;;;;4949133;29;20281;-85
2023/05/01 17:22:45;;;;;;;;;;;;;;;;;;4952520;28;19945;-88
2023/05/01 17:25:22;;;;;;;;;;;;;;;;;;4976897;28;19937;-87
2023/05/01 17:27:54;;;;;;;;;;;;;;;;;;4967627;28;19910;-88
2023/05/01 17:30:20;;;;;;;;;;;;;;;;;;4957187;29;19926;-86
2023/05/01 17:32:46;;;;;;;;;;;;;;;;;;4960674;29;20019;-87
2023/05/01 17:35:21;;;;;;;;;;;;;;;;;;4959203;29;19906;-87
2023/05/01 17:37:48;;;;;;;;;;;;;;;;;;4957921;29;19931;-87
2023/05/01 17:40:31;;;;;;;;;;;;;;;;;;4973049;28;19934;-87
2023/05/01 17:43:17;;;;;;;;;;;;;;;;;;4971162;28;19933;-87
2023/05/01 17:45:44;;;;;;;;;;;;;;;;;;4959041;28;19907;-87
2023/05/01 17:48:20;;;;;;;;;;;;;;;;;;4987874;28;19926;-87
2023/05/01 17:50:46;;;;;;;;;;;;;;;;;;4955727;29;19927;-87
2023/05/01 17:53:35;;;;;;;;;;;;;;;;;;4963829;29;19909;-87
2023/05/01 17:56:36;;;;;;;;;;;;;;;;;;4979047;28;19919;-87
2023/05/01 17:59:03;;;;;;;;;;;;;;;;;;4981966;28;19911;-87
2023/05/01 18:01:48;;;;;;;;;;;;;;;;;;4983429;28;19922;-86
2023/05/01 18:04:17;;;;;;;;;;;;;;;;;;4971348;28;19962;-88
2023/05/01 18:06:43;;;;;;;;;;;;;;;;;;4966226;28;20003;-87
2023/05/01 18:09:09;;;;;;;;;;;;;;;;;;4940324;29;19930;-88
2023/05/01 18:11:35;;;;;;;;;;;;;;;;;;4946863;29;19929;-87
2023/05/01 18:14:03;;;;;;;;;;;;;;;;;;4952801;29;19978;-88
2023/05/01 18:16:29;;;;;;;;;;;;;;;;;;4955453;29;19914;-88
2023/05/01 18:19:01;;;;;;;;;;;;;;;;;;4954009;28;19926;-86
2023/05/01 18:21:44;;;;;;;;;;;;;;;;;;4963335;28;19934;-87
2023/05/01 18:24:09;;;;;;;;;;;;;;;;;;4968280;29;19926;-86
2023/05/01 18:26:36;;;;;;;;;;;;;;;;;;4956584;28;19938;-87
2023/05/01 18:29:11;;;;;;;;;;;;;;;;;;4969038;28;19969;-88
2023/05/01 18:31:43;;;;;;;;;;;;;;;;;;4974261;28;19940;-87
2023/05/01 18:34:19;;;;;;;;;;;;;;;;;;4975221;29;20450;-87
2023/05/01 18:36:53;;;;;;;;;;;;;;;;;;4974125;28;19978;-87
2023/05/01 18:39:22;;;;;;;;;;;;;;;;;;4964001;29;19917;-88
2023/05/01 18:42:02;;;;;;;;;;;;;;;;;;4965018;28;19982;-89
2023/05/01 18:44:30;;;;;;;;;;;;;;;;;;4946529;29;19930;-88
2023/05/01 18:46:59;;;;;;;;;;;;;;;;;;4965180;29;20054;-90
2023/05/01 18:49:25;;;;;;;;;;;;;;;;;;4941951;29;19926;-90
2023/05/01 18:51:52;;;;;;;;;;;;;;;;;;4953752;29;19922;-90
2023/05/01 18:54:18;;;;;;;;;;;;;;;;;;4943776;29;20002;-90
2023/05/01 18:56:44;;;;;;;;;;;;;;;;;;4951318;28;19973;-91
2023/05/01 19:02:08;;;;;;;;;;;;;;;;;;5094775;23;19937;-87
2023/05/01 19:04:35;;;;;;;;;;;;;;;;;;4963699;28;19923;-87
2023/05/01 19:07:01;;;;;;;;;;;;;;;;;;4977118;28;19923;-88
2023/05/01 19:09:27;;;;;;;;;;;;;;;;;;4968236;28;20022;-89
2023/05/01 19:11:53;;;;;;;;;;;;;;;;;;4965825;28;19928;-88
2023/05/01 19:14:20;;;;;;;;;;;;;;;;;;4961751;29;20014;-88
2023/05/01 19:16:46;;;;;;;;;;;;;;;;;;4956306;28;19946;-87
2023/05/01 19:19:12;;;;;;;;;;;;;;;;;;4966287;28;20467;-88
2023/05/01 19:21:38;;;;;;;;;;;;;;;;;;4964316;28;19937;-86
2023/05/01 19:24:04;;;;;;;;;;;;;;;;;;4977285;28;19907;-88
2023/05/01 19:26:30;;;;;;;;;;;;;;;;;;4959591;28;19932;-88
2023/05/01 19:28:56;;;;;;;;;;;;;;;;;;4979010;28;19997;-87
2023/05/01 19:31:23;;;;;;;;;;;;;;;;;;4964389;28;19929;-88
2023/05/01 19:33:49;;;;;;;;;;;;;;;;;;4958305;28;19923;-89
2023/05/01 19:36:20;;;;;;;;;;;;;;;;;;4959069;28;19977;-88
2023/05/01 19:38:47;;;;;;;;;;;;;;;;;;4971604;28;19986;-88
2023/05/01 19:49:02;;;;;;;;;;;;;;;;;;4974606;28;19934;-88
2023/05/01 19:51:35;;;;;;;;;;;;;;;;;;4969810;28;19932;-87
2023/05/01 20:07:03;;;;;;;;;;;;;;;;;;710520;23;20204;-89
2023/05/01 20:12:05;;;;;;;;;;;;;;;;;;5038102;23;19928;-88
2023/05/01 20:14:50;;;;;;;;;;;;;;;;;;4981755;28;19945;-87
2023/05/01 20:17:16;;;;;;;;;;;;;;;;;;4956698;28;19906;-87
2023/05/01 20:19:42;;;;;;;;;;;;;;;;;;4970442;28;19986;-87
2023/05/01 20:22:09;;;;;;;;;;;;;;;;;;4963647;28;19969;-88
2023/05/01 20:24:35;;;;;;;;;;;;;;;;;;4955485;28;19931;-87
2023/05/01 20:27:04;;;;;;;;;;;;;;;;;;4960444;28;19911;-87
2023/05/01 20:29:53;;;;;;;;;;;;;;;;;;5257166;23;19926;-88
2023/05/01 20:32:19;;;;;;;;;;;;;;;;;;4977305;28;20487;-88
2023/05/01 20:34:45;;;;;;;;;;;;;;;;;;4962371;28;19981;-88
2023/05/01 20:37:11;;;;;;;;;;;;;;;;;;4969459;28;19998;-86
2023/05/01 20:39:40;;;;;;;;;;;;;;;;;;4979758;28;19910;-88
2023/05/01 20:44:45;;;;;;;;;;;;;;;;;;5113828;23;19917;-87
2023/05/01 20:47:13;;;;;;;;;;;;;;;;;;4963374;28;20926;-87
2023/05/01 20:49:40;;;;;;;;;;;;;;;;;;4964018;28;19923;-86
2023/05/01 20:52:21;;;;;;;;;;;;;;;;;;4971123;28;19989;-86
2023/05/01 20:54:47;;;;;;;;;;;;;;;;;;4968902;28;19933;-87
2023/05/01 20:57:15;;;;;;;;;;;;;;;;;;4963744;28;19922;-87
2023/05/01 20:59:41;;;;;;;;;;;;;;;;;;4981012;28;20017;-85
2023/05/01 21:02:25;;;;;;;;;;;;;;;;;;4988432;28;19922;-88
2023/05/01 21:04:51;;;;;;;;;;;;;;;;;;4971290;28;19942;-86
2023/05/01 21:07:18;;;;;;;;;;;;;;;;;;4985783;28;19922;-87
2023/05/01 21:09:53;;;;;;;;;;;;;;;;;;4994825;28;19933;-86
2023/05/01 21:12:19;;;;;;;;;;;;;;;;;;4964810;28;19926;-87
2023/05/01 21:14:46;;;;;;;;;;;;;;;;;;4969644;28;19914;-86
2023/05/01 21:17:12;;;;;;;;;;;;;;;;;;4999877;28;19926;-87
2023/05/01 21:19:39;;;;;;;;;;;;;;;;;;4982830;28;19927;-87
2023/05/01 21:22:06;;;;;;;;;;;;;;;;;;4969990;28;20012;-87
2023/05/01 21:24:34;;;;;;;;;;;;;;;;;;4973470;28;20004;-87
2023/05/01 21:27:00;;;;;;;;;;;;;;;;;;4967890;28;19953;-86
2023/05/01 21:29:26;;;;;;;;;;;;;;;;;;4965038;28;20343;-87
2023/05/01 21:31:58;;;;;;;;;;;;;;;;;;4988232;28;19910;-87
2023/05/01 21:34:41;;;;;;;;;;;;;;;;;;5005577;28;19934;-87
2023/05/01 21:47:49;;;;;;;;;;;;;;;;;;5281135;23;19927;-88
2023/05/01 21:50:15;;;;;;;;;;;;;;;;;;4954618;29;20398;-87
2023/05/01 21:52:45;;;;;;;;;;;;;;;;;;4954425;29;19965;-87
2023/05/01 21:55:13;;;;;;;;;;;;;;;;;;4958545;29;19929;-87
2023/05/01 22:00:28;;;;;;;;;;;;;;;;;;5323311;23;20015;-86
2023/05/01 22:02:57;;;;;;;;;;;;;;;;;;4983588;28;19917;-86
2023/05/01 22:05:24;;;;;;;;;;;;;;;;;;4966638;28;19919;-85
2023/05/01 22:23:35;;;;;;;;;;;;;;;;;;5030004;23;19930;-92
2023/05/01 22:26:01;;;;;;;;;;;;;;;;;;4973208;28;19946;-90
2023/05/01 22:28:27;;;;;;;;;;;;;;;;;;4977836;28;19927;-91
2023/05/01 22:30:53;;;;;;;;;;;;;;;;;;4957799;28;19926;-90
2023/05/01 22:33:22;;;;;;;;;;;;;;;;;;4955749;29;19956;-91
2023/05/01 22:35:48;;;;;;;;;;;;;;;;;;4952938;29;19966;-89
2023/05/01 22:38:14;;;;;;;;;;;;;;;;;;4954751;28;20039;-90
2023/05/01 22:40:40;;;;;;;;;;;;;;;;;;4956947;29;19923;-91
2023/05/01 22:43:07;;;;;;;;;;;;;;;;;;4958907;29;19922;-92
2023/05/01 22:45:32;;;;;;;;;;;;;;;;;;4957042;29;19922;-90
2023/05/01 22:47:58;;;;;;;;;;;;;;;;;;4972355;29;19928;-91
2023/05/01 22:53:00;;;;;;;;;;;;;;;;;;5533877;23;19938;-91
2023/05/01 23:16:15;;;;;;;;;;;;;;;;;;872720;23;20201;-90
2023/05/01 23:18:41;;;;;;;;;;;;;;;;;;4951569;28;19936;-92
2023/05/01 23:21:08;;;;;;;;;;;;;;;;;;4954527;28;19923;-91
2023/05/01 23:23:37;;;;;;;;;;;;;;;;;;4953823;28;20005;-91
2023/05/01 23:44:13;;;;;;;;;;;;;;;;;;5456245;23;19926;-90
2023/05/01 23:46:40;;;;;;;;;;;;;;;;;;4955344;29;19965;-92
2023/05/01 23:49:06;;;;;;;;;;;;;;;;;;4969490;28;19933;-91
2023/05/01 23:51:32;;;;;;;;;;;;;;;;;;4962476;28;19933;-92
2023/05/01 23:53:58;;;;;;;;;;;;;;;;;;4969718;29;19922;-91
2023/05/01 23:56:23;;;;;;;;;;;;;;;;;;4940928;29;19969;-92
2023/05/01 23:58:49;;;;;;;;;;;;;;;;;;4952869;28;19930;-91
